Time;durP1;ratioP1;P1;durP2;ratioP2;P2;SDS_P1;SDS_P2;PMS_P1;PMS_P2;Temp;Humidity;BMP_temperature;BMP_pressure;BME280_temperature;BME280_humidity;BME280_pressure;Samples;Min_cycle;Max_cycle;Signal;HPM_P1;HPM_P2
2022/04/30 00:00:58;;;;;;;16.10;14.48;;;14.30;99.30;;;;;;5114075;28;20202;-71
2022/04/30 00:03:28;;;;;;;16.30;14.65;;;14.20;99.90;;;;;;5114219;28;20597;-70
2022/04/30 00:05:55;;;;;;;15.93;14.35;;;14.20;99.90;;;;;;5114328;28;20218;-70
2022/04/30 00:08:22;;;;;;;16.42;14.82;;;14.30;99.90;;;;;;5114300;28;20205;-70
2022/04/30 00:10:50;;;;;;;15.02;13.63;;;14.30;99.30;;;;;;5114392;28;20308;-70
2022/04/30 00:13:17;;;;;;;16.60;14.88;;;14.30;99.00;;;;;;5113943;28;20218;-70
2022/04/30 00:15:44;;;;;;;16.75;14.23;;;14.40;99.10;;;;;;5114193;28;20221;-70
2022/04/30 00:18:11;;;;;;;16.20;14.60;;;14.40;99.70;;;;;;5114152;28;20205;-71
2022/04/30 00:20:45;;;;;;;15.23;14.00;;;14.40;99.40;;;;;;5114070;28;20202;-70
2022/04/30 00:23:19;;;;;;;15.20;13.75;;;14.30;99.90;;;;;;5114029;28;20204;-70
2022/04/30 00:25:48;;;;;;;16.35;14.75;;;14.30;99.90;;;;;;5113841;28;20784;-70
2022/04/30 00:28:15;;;;;;;16.02;14.52;;;14.30;99.90;;;;;;5114096;28;20201;-71
2022/04/30 00:30:43;;;;;;;15.90;14.40;;;14.30;99.90;;;;;;5113865;28;20202;-71
2022/04/30 00:33:10;;;;;;;14.57;13.15;;;14.30;99.90;;;;;;5113522;28;20247;-70
2022/04/30 00:35:38;;;;;;;16.23;14.73;;;14.30;99.90;;;;;;5114030;28;20227;-71
2022/04/30 00:38:06;;;;;;;16.48;14.80;;;14.30;99.90;;;;;;5114481;28;20296;-71
2022/04/30 00:40:33;;;;;;;17.40;15.40;;;14.20;99.90;;;;;;5113986;28;20576;-70
2022/04/30 00:43:00;;;;;;;16.95;15.27;;;14.20;99.90;;;;;;5113603;28;20213;-70
2022/04/30 00:45:27;;;;;;;17.13;15.45;;;14.20;99.90;;;;;;5113925;28;20244;-71
2022/04/30 00:47:55;;;;;;;17.65;15.95;;;14.10;99.90;;;;;;5113774;28;20296;-70
2022/04/30 00:50:23;;;;;;;17.33;15.52;;;14.10;99.90;;;;;;5113863;28;20201;-70
2022/04/30 00:52:53;;;;;;;18.15;16.17;;;13.90;99.90;;;;;;5113701;28;20783;-70
2022/04/30 00:55:22;;;;;;;19.13;14.55;;;13.90;99.90;;;;;;5113740;28;20229;-70
2022/04/30 00:57:50;;;;;;;16.08;14.43;;;13.80;99.90;;;;;;5113853;28;20579;-71
2022/04/30 01:00:18;;;;;;;15.90;14.40;;;13.80;99.90;;;;;;5113634;28;20208;-71
2022/04/30 01:02:45;;;;;;;16.27;14.77;;;13.80;99.90;;;;;;5113739;28;20194;-71
2022/04/30 01:05:11;;;;;;;14.98;13.57;;;13.90;99.90;;;;;;5113529;28;20217;-71
2022/04/30 01:07:40;;;;;;;15.30;13.90;;;13.90;99.40;;;;;;5113741;28;20288;-71
2022/04/30 01:10:09;;;;;;;15.15;13.68;;;13.90;99.60;;;;;;5113515;28;20212;-71
2022/04/30 01:12:36;;;;;;;16.08;14.38;;;13.90;99.80;;;;;;5113654;28;20271;-70
2022/04/30 01:15:05;;;;;;;16.08;14.50;;;13.90;99.90;;;;;;5113435;28;20229;-71
2022/04/30 01:17:32;;;;;;;17.05;15.50;;;14.00;99.90;;;;;;5113619;28;20204;-70
2022/04/30 01:20:00;;;;;;;16.60;15.00;;;14.00;99.90;;;;;;5113572;28;20213;-71
2022/04/30 01:22:29;;;;;;;16.70;15.10;;;14.00;99.90;;;;;;5113388;28;20555;-70
2022/04/30 01:24:59;;;;;;;17.02;15.43;;;14.10;99.90;;;;;;5113435;28;20314;-70
2022/04/30 01:27:26;;;;;;;20.77;17.17;;;14.10;99.90;;;;;;5113577;28;20236;-70
2022/04/30 01:29:54;;;;;;;19.50;17.48;;;14.10;99.90;;;;;;5113235;28;20278;-70
2022/04/30 01:37:58;;;;;;;23.95;18.50;;;13.90;99.90;;;;;;5116401;28;20241;-70
2022/04/30 01:40:26;;;;;;;21.05;18.15;;;13.90;99.90;;;;;;5117085;28;20655;-70
2022/04/30 01:42:58;;;;;;;20.95;18.75;;;13.70;99.90;;;;;;5117006;28;20204;-70
2022/04/30 01:45:25;;;;;;;24.27;19.65;;;13.80;99.90;;;;;;5117099;28;20225;-70
2022/04/30 01:47:53;;;;;;;21.80;19.15;;;13.80;99.90;;;;;;5117010;28;20223;-70
2022/04/30 01:50:20;;;;;;;24.10;20.38;;;13.80;99.90;;;;;;5116973;28;20205;-70
2022/04/30 01:52:48;;;;;;;24.25;20.25;;;13.80;99.90;;;;;;5116656;28;20314;-70
2022/04/30 01:55:15;;;;;;;23.75;19.48;;;13.80;99.90;;;;;;5116382;28;20700;-70
2022/04/30 01:57:44;;;;;;;22.90;20.40;;;13.90;99.90;;;;;;5116939;28;20614;-71
2022/04/30 02:00:14;;;;;;;28.58;20.92;;;13.90;99.90;;;;;;5116492;28;20206;-71
2022/04/30 02:02:43;;;;;;;23.10;19.08;;;13.90;99.90;;;;;;5116539;28;20197;-71
2022/04/30 02:05:13;;;;;;;24.27;19.50;;;13.90;99.90;;;;;;5116515;28;20224;-71
2022/04/30 02:07:45;;;;;;;25.98;20.00;;;13.90;99.90;;;;;;5116671;28;20205;-71
2022/04/30 02:10:12;;;;;;;28.27;20.85;;;13.70;99.90;;;;;;5116657;28;20205;-71
2022/04/30 02:12:40;;;;;;;26.02;20.15;;;13.60;99.90;;;;;;5116473;28;20215;-71
2022/04/30 02:15:10;;;;;;;24.80;19.30;;;13.70;99.90;;;;;;5116348;28;20229;-70
2022/04/30 02:17:40;;;;;;;24.40;19.80;;;13.70;99.90;;;;;;5116468;28;20197;-70
2022/04/30 02:20:22;;;;;;;26.25;21.13;;;13.70;99.90;;;;;;5116470;28;20198;-70
2022/04/30 02:22:50;;;;;;;23.92;20.23;;;13.60;99.90;;;;;;5116388;28;20201;-70
2022/04/30 02:25:19;;;;;;;29.10;21.15;;;13.60;99.90;;;;;;5116176;28;20226;-70
2022/04/30 02:27:47;;;;;;;26.90;21.50;;;13.60;99.90;;;;;;5116247;28;20201;-70
2022/04/30 02:30:18;;;;;;;27.95;21.70;;;13.50;99.90;;;;;;5116072;27;20205;-70
2022/04/30 02:32:46;;;;;;;30.38;20.67;;;13.40;99.90;;;;;;5116033;28;20204;-70
2022/04/30 02:35:15;;;;;;;26.98;20.88;;;13.30;99.90;;;;;;5115954;28;20229;-70
2022/04/30 02:37:44;;;;;;;25.25;20.05;;;13.40;99.90;;;;;;5115835;28;20663;-70
2022/04/30 02:40:13;;;;;;;26.08;20.25;;;13.40;99.90;;;;;;5115990;28;20255;-70
2022/04/30 02:42:41;;;;;;;24.67;19.63;;;13.50;99.90;;;;;;5115921;28;20197;-71
2022/04/30 02:45:09;;;;;;;24.42;20.55;;;13.50;99.90;;;;;;5115530;28;20224;-71
2022/04/30 02:47:39;;;;;;;25.48;21.00;;;13.50;99.90;;;;;;5115706;28;20690;-71
2022/04/30 02:50:08;;;;;;;26.42;20.67;;;13.40;99.90;;;;;;5115913;28;20201;-71
2022/04/30 02:52:39;;;;;;;22.52;17.55;;;13.50;99.90;;;;;;5115825;28;20205;-71
2022/04/30 02:55:06;;;;;;;23.08;19.20;;;13.30;99.90;;;;;;5115730;28;20630;-70
2022/04/30 02:59:53;;;;;;;23.38;18.73;;;13.40;99.90;;;;;;5115745;28;20558;-70
2022/04/30 03:00:32;;;;;;;23.10;18.77;;;13.40;99.90;;;;;;5115174;28;20204;-70
2022/04/30 03:03:00;;;;;;;22.38;19.08;;;13.40;99.90;;;;;;5115234;28;20189;-70
2022/04/30 03:05:27;;;;;;;24.25;19.05;;;13.40;99.90;;;;;;5115535;28;20311;-70
2022/04/30 03:07:54;;;;;;;23.77;19.25;;;13.40;99.90;;;;;;5115370;28;20208;-70
2022/04/30 03:10:21;;;;;;;22.92;18.75;;;13.30;99.90;;;;;;5115403;28;20557;-70
2022/04/30 03:12:49;;;;;;;21.92;19.33;;;13.20;99.90;;;;;;5116034;28;20202;-71
2022/04/30 03:15:17;;;;;;;22.33;19.15;;;13.00;99.90;;;;;;5116478;28;20221;-71
2022/04/30 03:23:11;;;;;;;23.13;20.25;;;13.00;99.90;;;;;;5116626;28;20200;-71
2022/04/30 03:25:37;;;;;;;25.45;20.27;;;13.00;99.90;;;;;;5115882;28;20702;-71
2022/04/30 03:28:05;;;;;;;27.35;21.55;;;13.10;99.90;;;;;;5115413;28;20201;-70
2022/04/30 03:30:31;;;;;;;26.88;20.23;;;13.10;99.90;;;;;;5114778;28;20215;-70
2022/04/30 03:32:58;;;;;;;27.10;20.80;;;13.00;99.90;;;;;;5114671;28;20295;-71
2022/04/30 03:35:26;;;;;;;28.85;20.85;;;13.10;99.90;;;;;;5114599;28;20308;-70
2022/04/30 03:37:53;;;;;;;25.65;21.77;;;13.10;99.90;;;;;;5114629;28;20208;-70
2022/04/30 03:40:22;;;;;;;29.90;20.70;;;13.00;99.90;;;;;;5114838;28;20205;-70
2022/04/30 03:42:49;;;;;;;29.90;22.17;;;13.00;99.90;;;;;;5114762;28;20209;-70
2022/04/30 03:45:16;;;;;;;31.02;21.20;;;12.90;99.90;;;;;;5114485;28;20225;-70
2022/04/30 03:47:43;;;;;;;29.92;21.58;;;13.00;99.90;;;;;;5114719;28;20198;-70
2022/04/30 03:50:10;;;;;;;27.10;21.27;;;13.00;99.90;;;;;;5114624;28;20288;-70
2022/04/30 03:52:39;;;;;;;24.10;19.25;;;13.00;99.90;;;;;;5114631;28;20288;-70
2022/04/30 03:55:07;;;;;;;29.48;19.90;;;13.10;99.90;;;;;;5114286;28;20225;-70
2022/04/30 03:57:34;;;;;;;27.33;19.58;;;13.00;99.90;;;;;;5114542;28;20201;-70
2022/04/30 04:00:01;;;;;;;31.60;21.00;;;12.90;99.90;;;;;;5114067;28;20212;-70
2022/04/30 04:02:28;;;;;;;26.30;18.88;;;12.80;99.90;;;;;;5114420;28;20205;-70
2022/04/30 04:04:56;;;;;;;25.20;17.42;;;12.80;99.90;;;;;;5114236;28;20221;-70
2022/04/30 04:07:22;;;;;;;24.73;18.05;;;12.90;99.90;;;;;;5114380;28;20197;-71
2022/04/30 04:09:51;;;;;;;21.50;15.75;;;12.90;99.90;;;;;;5114376;28;20198;-70
2022/04/30 04:12:17;;;;;;;22.70;15.35;;;12.90;99.90;;;;;;5114208;28;20292;-70
2022/04/30 04:17:41;;;;;;;20.73;15.57;;;12.70;99.90;;;;;;5114361;28;20200;-70
2022/04/30 04:20:10;;;;;;;27.08;16.85;;;12.60;99.90;;;;;;5114132;28;20205;-70
2022/04/30 04:22:37;;;;;;;24.83;17.20;;;12.60;99.90;;;;;;5114190;28;20211;-70
2022/04/30 04:27:54;;;;;;;21.90;14.85;;;12.60;99.90;;;;;;5113985;28;20209;-70
2022/04/30 04:30:21;;;;;;;23.50;16.35;;;12.60;99.90;;;;;;5113847;28;20303;-70
2022/04/30 04:32:48;;;;;;;25.20;16.83;;;12.60;99.90;;;;;;5114069;28;20258;-70
2022/04/30 04:35:15;;;;;;;24.15;15.52;;;12.60;99.90;;;;;;5113474;28;20234;-70
2022/04/30 04:37:42;;;;;;;24.90;16.80;;;12.70;99.90;;;;;;5114043;28;20253;-70
2022/04/30 04:40:12;;;;;;;23.85;17.20;;;12.60;99.90;;;;;;5113675;28;20292;-70
2022/04/30 04:42:40;;;;;;;23.95;16.63;;;12.50;99.90;;;;;;5114023;28;20197;-70
2022/04/30 04:45:08;;;;;;;22.50;14.88;;;12.40;99.90;;;;;;5113445;28;20222;-70
2022/04/30 04:47:36;;;;;;;23.98;16.95;;;12.50;99.90;;;;;;5113883;28;20207;-70
2022/04/30 04:50:03;;;;;;;23.98;16.65;;;12.50;99.90;;;;;;5113870;28;20305;-70
2022/04/30 04:52:30;;;;;;;23.50;14.90;;;12.50;99.90;;;;;;5113756;28;20201;-70
2022/04/30 04:54:58;;;;;;;23.67;17.05;;;12.50;99.90;;;;;;5113637;28;20236;-70
2022/04/30 04:57:27;;;;;;;19.65;14.10;;;12.50;99.90;;;;;;5113718;28;20206;-70
2022/04/30 04:59:54;;;;;;;21.58;15.77;;;12.50;99.90;;;;;;5113579;28;20203;-70
2022/04/30 05:02:21;;;;;;;26.38;16.08;;;12.50;99.90;;;;;;5113650;28;20710;-70
2022/04/30 05:04:48;;;;;;;21.27;15.02;;;12.50;99.90;;;;;;5113205;28;20217;-70
2022/04/30 05:07:15;;;;;;;22.35;16.88;;;12.50;99.90;;;;;;5113719;28;20205;-71
2022/04/30 05:09:42;;;;;;;22.15;14.48;;;12.10;99.90;;;;;;5113691;28;20205;-71
2022/04/30 05:12:09;;;;;;;24.63;17.15;;;12.20;99.90;;;;;;5115399;28;20202;-71
2022/04/30 05:14:37;;;;;;;21.98;15.95;;;12.20;99.90;;;;;;5117445;28;20236;-71
2022/04/30 05:17:06;;;;;;;22.77;16.98;;;12.20;99.90;;;;;;5117673;28;20197;-71
2022/04/30 05:19:33;;;;;;;22.92;17.15;;;12.20;99.90;;;;;;5117538;28;20206;-71
2022/04/30 05:22:01;;;;;;;24.65;17.05;;;12.20;99.90;;;;;;5117518;28;20201;-70
2022/04/30 05:24:28;;;;;;;22.73;15.77;;;12.30;99.90;;;;;;5117124;28;20271;-68
2022/04/30 05:26:55;;;;;;;22.27;16.30;;;12.40;99.90;;;;;;5117261;28;20205;-71
2022/04/30 05:29:22;;;;;;;24.10;15.98;;;12.40;99.90;;;;;;5117173;28;20587;-71
2022/04/30 05:31:50;;;;;;;23.15;15.73;;;12.40;99.90;;;;;;5117363;28;20208;-71
2022/04/30 05:34:17;;;;;;;26.85;18.33;;;12.40;99.90;;;;;;5116794;28;20264;-71
2022/04/30 05:36:44;;;;;;;25.70;18.85;;;12.40;99.90;;;;;;5116949;28;20293;-71
2022/04/30 05:39:10;;;;;;;25.35;17.65;;;12.50;99.90;;;;;;5117480;28;20677;-69
2022/04/30 05:41:37;;;;;;;22.40;16.48;;;12.60;99.90;;;;;;5117061;28;20207;-69
2022/04/30 05:44:04;;;;;;;22.10;16.05;;;12.60;99.90;;;;;;5116703;27;20221;-71
2022/04/30 05:46:31;;;;;;;26.08;17.50;;;12.70;99.90;;;;;;5117010;27;20205;-71
2022/04/30 05:48:59;;;;;;;25.60;17.40;;;12.70;99.90;;;;;;5116661;28;20204;-69
2022/04/30 05:51:27;;;;;;;23.55;16.92;;;12.80;99.90;;;;;;5116896;28;20205;-69
2022/04/30 05:53:54;;;;;;;23.08;16.38;;;12.80;99.90;;;;;;5116502;28;20236;-69
2022/04/30 05:56:20;;;;;;;27.30;17.63;;;12.80;99.90;;;;;;5116928;28;20205;-70
2022/04/30 05:58:47;;;;;;;25.08;17.00;;;12.80;99.90;;;;;;5116735;28;20667;-70
2022/04/30 06:01:14;;;;;;;26.63;17.30;;;12.70;99.90;;;;;;5116726;28;20205;-69
2022/04/30 06:03:41;;;;;;;25.98;17.10;;;12.80;99.90;;;;;;5116251;28;20671;-69
2022/04/30 06:06:10;;;;;;;26.45;17.35;;;12.70;99.90;;;;;;5116756;28;20205;-69
2022/04/30 06:08:37;;;;;;;24.52;16.95;;;12.70;99.90;;;;;;5116560;28;20198;-69
2022/04/30 06:11:04;;;;;;;23.95;17.13;;;12.70;99.90;;;;;;5116514;28;20655;-70
2022/04/30 06:13:31;;;;;;;22.27;17.35;;;12.80;99.90;;;;;;5116346;28;20196;-69
2022/04/30 06:15:57;;;;;;;26.30;18.13;;;12.60;99.90;;;;;;5116276;28;20257;-70
2022/04/30 06:18:25;;;;;;;28.73;18.98;;;12.70;99.90;;;;;;5116400;28;20208;-69
2022/04/30 06:20:52;;;;;;;22.55;16.02;;;12.70;99.90;;;;;;5116223;28;20218;-70
2022/04/30 06:23:20;;;;;;;23.63;16.23;;;12.60;99.90;;;;;;5115887;28;20300;-69
2022/04/30 06:25:47;;;;;;;22.65;15.70;;;12.60;99.90;;;;;;5116527;28;20224;-70
2022/04/30 06:28:14;;;;;;;23.80;15.90;;;12.60;99.90;;;;;;5116156;28;20292;-69
2022/04/30 06:30:41;;;;;;;22.98;15.75;;;12.60;99.90;;;;;;5116013;28;20697;-69
2022/04/30 06:33:08;;;;;;;21.42;16.42;;;12.70;99.90;;;;;;5116000;28;20201;-69
2022/04/30 06:35:37;;;;;;;21.83;15.95;;;12.70;99.90;;;;;;5116062;28;20221;-70
2022/04/30 06:38:04;;;;;;;25.27;17.20;;;12.70;99.90;;;;;;5116068;28;20208;-69
2022/04/30 06:40:32;;;;;;;25.67;17.30;;;12.60;99.90;;;;;;5116044;28;20265;-69
2022/04/30 06:43:00;;;;;;;26.27;17.45;;;12.60;99.90;;;;;;5115784;28;20201;-70
2022/04/30 06:45:27;;;;;;;27.67;17.33;;;12.60;99.90;;;;;;5115902;28;20217;-70
2022/04/30 06:47:54;;;;;;;25.17;17.30;;;12.60;99.90;;;;;;5116122;28;20562;-70
2022/04/30 06:50:21;;;;;;;25.30;16.48;;;12.80;99.90;;;;;;5115691;28;20224;-70
2022/04/30 06:58:18;;;;;;;19.33;14.07;;;13.10;99.90;;;;;;5115772;28;20212;-70
2022/04/30 07:03:40;;;;;;;18.80;13.65;;;13.10;99.90;;;;;;5052323;28;20188;-69
2022/04/30 07:06:09;;;;;;;20.67;15.02;;;13.10;99.90;;;;;;5100011;28;20201;-70
2022/04/30 07:08:35;;;;;;;24.50;15.60;;;13.00;99.90;;;;;;5115185;28;20651;-70
2022/04/30 07:11:04;;;;;;;24.40;15.98;;;13.00;99.90;;;;;;5115419;27;20291;-70
2022/04/30 07:13:31;;;;;;;21.90;15.60;;;12.90;99.90;;;;;;5115117;28;20288;-69
2022/04/30 07:15:58;;;;;;;22.33;15.88;;;12.80;99.90;;;;;;5115221;28;20625;-70
2022/04/30 07:18:25;;;;;;;21.13;16.25;;;12.90;99.90;;;;;;5115152;28;20208;-70
2022/04/30 07:20:53;;;;;;;22.48;15.57;;;12.80;99.90;;;;;;5115250;28;20334;-70
2022/04/30 07:23:20;;;;;;;21.45;15.82;;;12.90;99.90;;;;;;5115051;28;20296;-69
2022/04/30 07:25:47;;;;;;;22.17;15.75;;;13.00;99.90;;;;;;5114785;28;20779;-70
2022/04/30 07:28:15;;;;;;;20.52;15.60;;;12.90;99.90;;;;;;5115078;28;20297;-70
2022/04/30 07:30:51;;;;;;;22.60;15.63;;;12.80;99.90;;;;;;5114888;28;20676;-70
2022/04/30 07:33:18;;;;;;;21.45;15.90;;;12.80;99.90;;;;;;5114616;28;20292;-69
2022/04/30 07:35:45;;;;;;;25.00;16.15;;;12.80;99.90;;;;;;5114195;28;20229;-70
2022/04/30 07:38:11;;;;;;;24.85;15.57;;;12.80;99.90;;;;;;5114909;28;20292;-70
2022/04/30 07:40:38;;;;;;;23.05;16.95;;;12.90;99.90;;;;;;5114877;28;20296;-70
2022/04/30 07:43:05;;;;;;;20.83;15.10;;;12.90;99.90;;;;;;5114638;28;20204;-69
2022/04/30 07:45:33;;;;;;;22.52;14.75;;;12.90;99.90;;;;;;5114560;28;20578;-70
2022/04/30 07:48:00;;;;;;;21.92;14.70;;;12.90;99.90;;;;;;5114741;28;20197;-70
2022/04/30 07:50:31;;;;;;;21.33;14.70;;;12.90;99.90;;;;;;5114685;28;20229;-70
2022/04/30 07:52:57;;;;;;;22.60;16.52;;;12.90;99.90;;;;;;5114598;28;20197;-69
2022/04/30 07:55:28;;;;;;;20.35;15.10;;;12.90;99.90;;;;;;5114373;28;20754;-70
2022/04/30 07:57:54;;;;;;;21.92;14.90;;;12.70;99.90;;;;;;5114531;28;20276;-69
2022/04/30 08:00:21;;;;;;;19.40;15.13;;;12.60;99.90;;;;;;5114485;28;20596;-69
2022/04/30 08:02:49;;;;;;;20.73;15.52;;;12.60;99.90;;;;;;5114249;28;20210;-70
2022/04/30 08:05:16;;;;;;;22.40;15.75;;;12.70;99.90;;;;;;5114240;28;20214;-69
2022/04/30 08:07:43;;;;;;;22.95;16.10;;;12.90;99.90;;;;;;5114727;28;20232;-70
2022/04/30 08:10:10;;;;;;;22.40;15.90;;;12.90;99.90;;;;;;5114386;28;20208;-69
2022/04/30 08:12:37;;;;;;;20.85;14.13;;;12.90;99.90;;;;;;5114224;28;20201;-70
2022/04/30 08:15:05;;;;;;;17.77;13.00;;;12.90;99.90;;;;;;5114041;28;20312;-69
2022/04/30 08:17:31;;;;;;;20.33;14.40;;;12.90;99.90;;;;;;5114195;28;20224;-69
2022/04/30 08:20:00;;;;;;;20.52;14.88;;;13.00;99.90;;;;;;5114066;28;20239;-70
2022/04/30 08:22:26;;;;;;;18.42;14.10;;;13.00;99.90;;;;;;5114138;28;20201;-70
2022/04/30 08:24:53;;;;;;;20.73;14.75;;;13.10;99.90;;;;;;5113676;28;20564;-69
2022/04/30 08:27:21;;;;;;;18.10;14.63;;;13.10;99.90;;;;;;5114147;28;20202;-69
2022/04/30 08:29:48;;;;;;;22.20;15.43;;;13.20;99.90;;;;;;5113642;28;20304;-69
2022/04/30 08:32:15;;;;;;;20.65;14.38;;;13.00;99.90;;;;;;5114291;28;20221;-70
2022/04/30 08:34:42;;;;;;;20.80;15.25;;;12.70;99.90;;;;;;5113546;28;20228;-69
2022/04/30 08:37:10;;;;;;;22.45;15.85;;;12.60;99.90;;;;;;5114112;28;20288;-69
2022/04/30 08:39:37;;;;;;;21.17;14.85;;;12.60;99.90;;;;;;5113923;28;20201;-70
2022/04/30 08:42:06;;;;;;;22.08;14.73;;;12.50;99.90;;;;;;5113985;28;20206;-69
2022/04/30 08:44:36;;;;;;;19.60;14.07;;;12.60;99.90;;;;;;5113484;28;20221;-69
2022/04/30 08:47:02;;;;;;;21.13;14.43;;;12.70;99.90;;;;;;5117145;28;20666;-69
2022/04/30 08:49:31;;;;;;;19.35;14.32;;;12.80;99.90;;;;;;5118183;28;20231;-70
2022/04/30 08:51:58;;;;;;;19.70;14.32;;;12.50;99.90;;;;;;5118017;28;20223;-69
2022/04/30 08:54:26;;;;;;;21.75;14.82;;;12.60;99.90;;;;;;5117858;28;20259;-70
2022/04/30 08:56:54;;;;;;;21.42;14.88;;;12.60;99.90;;;;;;5118066;28;20299;-70
2022/04/30 08:59:20;;;;;;;19.90;13.48;;;12.60;99.90;;;;;;5117902;28;20574;-70
2022/04/30 09:01:48;;;;;;;18.98;14.40;;;12.60;99.90;;;;;;5117961;28;20308;-70
2022/04/30 09:04:14;;;;;;;18.88;13.65;;;12.60;99.90;;;;;;5117398;27;20228;-70
2022/04/30 09:06:45;;;;;;;19.48;13.95;;;12.70;99.90;;;;;;5117828;28;20205;-70
2022/04/30 09:09:12;;;;;;;18.98;13.23;;;12.70;99.90;;;;;;5117868;28;20261;-70
2022/04/30 09:11:40;;;;;;;18.90;13.50;;;12.80;99.90;;;;;;5117573;28;20667;-70
2022/04/30 09:14:07;;;;;;;15.63;11.63;;;12.80;99.90;;;;;;5117371;28;20315;-70
2022/04/30 09:16:34;;;;;;;16.20;12.50;;;12.90;99.90;;;;;;5117617;27;20263;-70
2022/04/30 09:19:03;;;;;;;15.80;11.85;;;12.80;99.90;;;;;;5117521;28;20197;-70
2022/04/30 09:21:30;;;;;;;17.52;12.38;;;12.90;99.90;;;;;;5117542;27;20202;-69
2022/04/30 09:24:04;;;;;;;15.85;12.25;;;12.90;99.90;;;;;;5117130;28;20711;-69
2022/04/30 09:26:41;;;;;;;16.05;12.32;;;12.90;99.90;;;;;;5117626;28;20209;-70
2022/04/30 09:29:20;;;;;;;17.75;12.75;;;12.80;99.90;;;;;;5117196;28;20208;-70
2022/04/30 09:31:50;;;;;;;15.00;12.15;;;12.80;99.90;;;;;;5117332;28;20212;-70
2022/04/30 09:39:43;;;;;;;14.30;10.73;;;12.60;99.90;;;;;;5117283;28;20254;-70
2022/04/30 09:42:11;;;;;;;14.77;12.13;;;12.50;99.90;;;;;;5117145;27;20689;-70
2022/04/30 09:44:38;;;;;;;14.73;11.25;;;12.50;99.90;;;;;;5116695;28;20221;-70
2022/04/30 09:47:07;;;;;;;17.33;12.43;;;12.40;99.90;;;;;;5117059;28;20201;-70
2022/04/30 09:55:04;;;;;;;12.90;10.38;;;12.10;99.90;;;;;;5116521;28;20235;-71
2022/04/30 09:57:36;;;;;;;11.95;9.63;;;12.20;99.90;;;;;;5115927;28;20382;-69
2022/04/30 10:00:08;;;;;;;14.30;10.65;;;12.30;99.90;;;;;;5116586;28;20667;-69
2022/04/30 10:02:37;;;;;;;11.75;8.70;;;12.40;99.90;;;;;;5116784;28;20205;-70
2022/04/30 10:05:04;;;;;;;12.32;9.60;;;12.50;99.90;;;;;;5116305;28;20624;-69
2022/04/30 10:07:33;;;;;;;13.55;10.77;;;12.50;99.90;;;;;;5116803;28;20201;-70
2022/04/30 10:10:17;;;;;;;11.80;10.00;;;12.50;99.90;;;;;;5116636;28;20289;-70
2022/04/30 10:12:50;;;;;;;12.32;8.88;;;12.50;99.90;;;;;;5116508;28;20205;-70
2022/04/30 10:15:23;;;;;;;11.27;8.65;;;12.60;99.90;;;;;;5116067;28;20231;-69
2022/04/30 10:17:53;;;;;;;11.75;9.07;;;12.60;99.90;;;;;;5116541;28;20205;-69
2022/04/30 10:20:29;;;;;;;12.30;9.70;;;12.60;99.90;;;;;;5116462;28;20251;-69
2022/04/30 10:22:57;;;;;;;13.13;9.65;;;12.60;99.90;;;;;;5116369;28;20312;-69
2022/04/30 10:25:34;;;;;;;14.75;11.00;;;12.70;99.90;;;;;;5116279;28;20217;-69
2022/04/30 10:28:06;;;;;;;14.32;10.50;;;12.40;99.90;;;;;;5116276;28;20220;-69
2022/04/30 10:30:34;;;;;;;11.30;9.45;;;12.50;99.90;;;;;;5116050;28;20213;-70
2022/04/30 10:33:02;;;;;;;15.25;9.70;;;12.40;99.90;;;;;;5116332;28;20197;-70
2022/04/30 10:35:33;;;;;;;11.57;9.05;;;12.40;99.90;;;;;;5116065;28;20221;-70
2022/04/30 10:38:09;;;;;;;11.60;10.13;;;12.30;99.90;;;;;;5116213;28;20202;-71
2022/04/30 10:40:40;;;;;;;13.10;9.93;;;12.10;99.90;;;;;;5116005;28;20212;-72
2022/04/30 10:43:26;;;;;;;12.80;10.02;;;12.10;99.90;;;;;;5115809;28;20205;-71
2022/04/30 10:45:55;;;;;;;14.48;10.35;;;12.10;99.90;;;;;;5115673;28;20232;-71
2022/04/30 10:48:21;;;;;;;11.82;10.20;;;12.00;99.90;;;;;;5115648;28;20198;-71
2022/04/30 10:50:51;;;;;;;14.25;10.82;;;12.10;99.90;;;;;;5115766;28;20308;-71
2022/04/30 10:53:20;;;;;;;13.32;9.68;;;12.30;99.90;;;;;;5115618;28;20202;-69
2022/04/30 10:55:47;;;;;;;13.18;10.65;;;12.30;99.90;;;;;;5115611;28;20225;-71
2022/04/30 10:58:22;;;;;;;14.07;10.50;;;12.20;99.90;;;;;;5115602;28;20201;-71
2022/04/30 11:00:50;;;;;;;13.13;10.30;;;12.00;99.90;;;;;;5115686;28;20209;-71
2022/04/30 11:03:17;;;;;;;11.32;9.07;;;12.10;99.90;;;;;;5115331;28;20201;-71
2022/04/30 11:05:48;;;;;;;11.30;9.85;;;12.10;99.90;;;;;;5115222;28;20760;-71
2022/04/30 11:08:15;;;;;;;12.95;10.45;;;12.30;99.90;;;;;;5115214;28;20205;-71
2022/04/30 11:10:51;;;;;;;10.05;8.18;;;12.30;99.90;;;;;;5114331;28;20731;-71
2022/04/30 11:13:18;;;;;;;11.68;7.93;;;12.50;99.90;;;;;;5115166;28;20253;-71
2022/04/30 11:15:45;;;;;;;6.00;5.35;;;12.70;99.90;;;;;;5115120;28;20244;-71
2022/04/30 11:18:13;;;;;;;5.50;4.95;;;12.50;99.90;;;;;;5115294;28;20197;-69
2022/04/30 11:20:40;;;;;;;6.13;5.22;;;12.40;99.90;;;;;;5115302;28;20202;-71
2022/04/30 11:23:07;;;;;;;5.70;5.20;;;12.40;99.90;;;;;;5115036;27;20201;-70
2022/04/30 11:25:35;;;;;;;6.28;4.90;;;12.30;99.90;;;;;;5115160;28;20222;-70
2022/04/30 11:28:06;;;;;;;6.28;5.32;;;12.20;99.90;;;;;;5115160;28;20207;-71
2022/04/30 11:30:37;;;;;;;6.30;5.70;;;12.30;99.90;;;;;;5114858;28;20309;-71
2022/04/30 11:33:04;;;;;;;6.40;5.80;;;12.10;99.90;;;;;;5115032;28;20667;-71
2022/04/30 11:35:32;;;;;;;9.38;7.63;;;12.10;99.90;;;;;;5114917;28;20228;-70
2022/04/30 11:37:59;;;;;;;7.10;5.72;;;12.30;99.90;;;;;;5114859;28;20197;-71
2022/04/30 11:40:26;;;;;;;6.25;5.65;;;12.70;99.90;;;;;;5114885;28;20244;-71
2022/04/30 11:42:57;;;;;;;6.90;6.20;;;12.90;99.90;;;;;;5114775;28;20205;-71
2022/04/30 11:45:29;;;;;;;6.20;5.63;;;13.00;99.90;;;;;;5114743;28;20613;-71
2022/04/30 11:47:56;;;;;;;5.80;5.20;;;13.20;99.90;;;;;;5114723;28;20300;-71
2022/04/30 11:50:23;;;;;;;6.60;5.55;;;13.30;99.90;;;;;;5114597;28;20237;-71
2022/04/30 11:52:52;;;;;;;6.75;6.15;;;13.40;99.90;;;;;;5114653;28;20568;-71
2022/04/30 11:55:20;;;;;;;6.38;5.78;;;13.70;99.90;;;;;;5114176;28;20217;-71
2022/04/30 11:57:48;;;;;;;5.72;5.22;;;13.80;99.90;;;;;;5114494;28;20261;-71
2022/04/30 12:00:18;;;;;;;6.40;5.80;;;13.80;99.90;;;;;;5114360;28;20213;-71
2022/04/30 12:02:47;;;;;;;6.43;5.80;;;13.80;99.90;;;;;;5114940;28;20201;-71
2022/04/30 12:05:14;;;;;;;6.75;5.35;;;13.70;99.90;;;;;;5114161;28;20226;-71
2022/04/30 12:07:43;;;;;;;8.60;6.32;;;13.40;99.90;;;;;;5114539;28;20225;-71
2022/04/30 12:10:18;;;;;;;7.03;5.60;;;13.40;99.90;;;;;;5114341;28;20205;-71
2022/04/30 12:12:45;;;;;;;6.45;5.53;;;13.60;99.90;;;;;;5114184;28;20201;-70
2022/04/30 12:15:20;;;;;;;8.15;6.03;;;13.90;99.90;;;;;;5114167;28;20558;-71
2022/04/30 12:24:40;;;;;;;6.95;6.10;;;13.90;99.90;;;;;;5114170;28;20231;-70
2022/04/30 12:26:13;;;;;;;7.05;6.20;;;13.80;99.90;;;;;;5113953;28;20197;-71
2022/04/30 12:28:47;;;;;;;6.05;5.55;;;13.50;99.90;;;;;;5113950;28;20636;-71
2022/04/30 12:31:15;;;;;;;6.28;5.68;;;13.40;99.90;;;;;;5114134;28;20240;-71
2022/04/30 12:33:48;;;;;;;6.85;6.15;;;13.40;99.90;;;;;;5113786;28;20689;-70
2022/04/30 12:36:15;;;;;;;6.45;5.40;;;13.30;99.90;;;;;;5114057;28;20217;-70
2022/04/30 12:38:53;;;;;;;7.18;6.47;;;13.40;99.90;;;;;;5113955;28;20205;-71
2022/04/30 12:41:22;;;;;;;6.30;5.45;;;13.50;99.90;;;;;;5113970;28;20564;-70
2022/04/30 12:43:50;;;;;;;6.57;5.85;;;13.40;99.90;;;;;;5113770;28;20201;-70
2022/04/30 12:46:20;;;;;;;6.63;6.03;;;13.40;99.90;;;;;;5113738;28;20205;-70
2022/04/30 12:48:47;;;;;;;7.43;5.47;;;13.30;99.90;;;;;;5114065;28;20201;-70
2022/04/30 12:51:16;;;;;;;7.63;6.78;;;13.30;99.90;;;;;;5113832;28;20197;-70
2022/04/30 12:53:42;;;;;;;6.75;6.05;;;13.30;99.90;;;;;;5113518;28;20202;-70
2022/04/30 12:56:09;;;;;;;8.02;6.40;;;13.20;99.90;;;;;;5113884;28;20220;-71
2022/04/30 12:58:37;;;;;;;8.45;7.10;;;13.30;99.90;;;;;;5113813;28;20211;-69
2022/04/30 13:01:04;;;;;;;7.60;6.70;;;13.10;99.90;;;;;;5113827;28;20292;-69
2022/04/30 13:03:31;;;;;;;8.40;7.15;;;13.10;99.90;;;;;;5113478;28;20690;-69
2022/04/30 13:05:58;;;;;;;7.60;6.38;;;13.00;99.90;;;;;;5113616;28;20233;-69
2022/04/30 13:13:30;;;;;;;7.15;6.30;;;13.00;99.90;;;;;;5113646;28;20205;-71
2022/04/30 13:13:57;;;;;;;6.45;5.78;;;12.80;99.90;;;;;;5113284;28;20613;-71
2022/04/30 13:16:24;;;;;;;6.70;6.00;;;12.80;99.90;;;;;;5113799;28;20217;-71
2022/04/30 13:18:51;;;;;;;7.05;5.80;;;12.60;99.90;;;;;;5113527;28;20750;-71
2022/04/30 13:21:18;;;;;;;8.25;6.75;;;12.40;99.90;;;;;;5113686;28;20201;-71